»·PEaware :: N103QS KSEA-KEUG

N103QS :: KSEA-KEUG

FLIGHT INFORMATION

Flight Status: Arrived
Operator: Privately registered:
United States
More flights under this callsign
Pilot: Patricio R. (14780)
Aircraft: BOEING 737-800
(B738)
More flights by this aircraft type
Origin: KSEA Seattle-Tacoma Intl
United States
Destination: KEUG Mahlon Sweet
United States
More flights between these airports :: More routes between these airports
Route: +HAROB6 FEPOT CVO
File this flight plan on PilotEdge
Remarks:
Altitude:
(Current/Filed)
27,000ft
Speed:
(Current/Filed)
441kts
Departed: 04-Jan-18 01:14 PM
Arrived: 04-Jan-18 02:00 PM
Distance/Time
Traveled:
203nm/0:46
Distance/Time
To Go:
Arrived

Flight Plot

Page will automatically refresh every two minutes.

Flight plan parsing failed; only flown route is shown


Map Options




Map Legend


Flown Route
Filed Route
Departure Airport
Arrival Airport
Navaid (VOR, NDB)
Fix

Horizontal Profiles

Position Reports

Time Latitude Longitude Heading Altitude Ground
Speed
04-Jan-18 13:00 47.462548 -122.302662 0 334ft 0kts
04-Jan-18 13:01 47.462548 -122.302662 0 334ft 0kts
04-Jan-18 13:02 47.462548 -122.302662 0 334ft 0kts
04-Jan-18 13:03 47.462548 -122.302662 0 334ft 0kts
04-Jan-18 13:04 47.462548 -122.302662 0 334ft 0kts
04-Jan-18 13:05 47.462548 -122.302662 0 334ft 0kts
04-Jan-18 13:06 47.462548 -122.302662 0 334ft 0kts
04-Jan-18 13:07 47.462548 -122.302662 0 334ft 0kts
04-Jan-18 13:08 47.462548 -122.302662 0 334ft 0kts
04-Jan-18 13:09 47.462548 -122.302662 0 334ft 0kts
04-Jan-18 13:10 47.462548 -122.302662 0 334ft 0kts
04-Jan-18 13:11 47.462548 -122.302662 0 334ft 0kts
04-Jan-18 13:12 47.462548 -122.302662 0 334ft 0kts
04-Jan-18 13:13 47.462548 -122.302662 0 334ft 0kts
04-Jan-18 13:14 47.462146 -122.302660 359 334ft 2kts
04-Jan-18 13:15 47.461747 -122.302248 275 334ft 1kts
04-Jan-18 13:16 47.461747 -122.302125 269 334ft 0kts
04-Jan-18 13:17 47.461742 -122.302848 269 334ft 3kts
04-Jan-18 13:18 47.462513 -122.305197 349 334ft 7kts
04-Jan-18 13:19 47.463786 -122.306933 259 334ft 7kts
04-Jan-18 13:20 47.451746 -122.307837 180 350ft 145kts
04-Jan-18 13:21 47.409945 -122.308455 180 2764ft 162kts
04-Jan-18 13:22 47.357829 -122.309827 182 4944ft 217kts
04-Jan-18 13:23 47.316392 -122.363133 257 7820ft 244kts
04-Jan-18 13:24 47.307843 -122.470681 267 10348ft 288kts
04-Jan-18 13:25 47.310672 -122.580676 268 13198ft 300kts
04-Jan-18 13:26 47.313062 -122.669152 268 15352ft 312kts
04-Jan-18 13:27 47.310526 -122.791267 245 18517ft 318kts
04-Jan-18 13:28 47.280102 -122.903934 244 21415ft 332kts
04-Jan-18 13:29 47.244194 -123.030964 232 24285ft 343kts
04-Jan-18 13:30 47.170925 -123.120285 214 26924ft 348kts
04-Jan-18 13:31 47.092710 -123.204269 205 27016ft 358kts
04-Jan-18 13:32 46.990882 -123.221591 181 27028ft 392kts
04-Jan-18 13:33 46.882225 -123.224736 181 27057ft 423kts
04-Jan-18 13:34 46.764946 -123.228128 181 27049ft 436kts
04-Jan-18 13:35 46.644188 -123.231618 181 27049ft 435kts
04-Jan-18 13:36 46.523362 -123.235113 181 27048ft 435kts
04-Jan-18 13:37 46.402952 -123.238625 181 27047ft 435kts
04-Jan-18 13:38 46.282996 -123.242053 181 27046ft 434kts
04-Jan-18 13:39 46.162594 -123.245570 182 27045ft 434kts
04-Jan-18 13:40 46.042600 -123.249018 181 27034ft 422kts
04-Jan-18 13:41 45.936935 -123.252068 182 27046ft 365kts
04-Jan-18 13:42 45.839640 -123.254893 182 25886ft 365kts
04-Jan-18 13:43 45.744787 -123.257636 182 24468ft 356kts
04-Jan-18 13:44 45.646774 -123.260475 182 22969ft 348kts
04-Jan-18 13:45 45.551726 -123.263227 182 21475ft 340kts
04-Jan-18 13:46 45.459037 -123.265853 185 19968ft 331kts
04-Jan-18 13:47 45.369563 -123.268492 184 18478ft 324kts
04-Jan-18 13:48 45.280712 -123.271066 184 16964ft 317kts
04-Jan-18 13:49 45.194364 -123.273554 184 15436ft 301kts
04-Jan-18 13:50 45.114359 -123.275861 184 13858ft 278kts
04-Jan-18 13:51 45.037896 -123.278096 184 12042ft 275kts
04-Jan-18 13:52 44.962498 -123.280284 183 10396ft 268kts
04-Jan-18 13:53 44.892588 -123.282308 183 9958ft 259kts
04-Jan-18 13:54 44.821041 -123.284383 183 9958ft 260kts
04-Jan-18 13:55 44.748748 -123.286459 184 8880ft 260kts
04-Jan-18 13:56 44.675091 -123.288661 181 7743ft 276kts
04-Jan-18 13:57 44.598788 -123.290811 181 6742ft 274kts
04-Jan-18 13:58 44.524271 -123.292961 181 5741ft 266kts
04-Jan-18 13:59 44.456595 -123.259665 148 4744ft 260kts
04-Jan-18 14:00 44.394617 -123.221710 180 3719ft 240kts
04-Jan-18 14:01 44.329020 -123.221972 179 2839ft 235kts
04-Jan-18 14:02 44.275070 -123.221287 179 2219ft 220kts
04-Jan-18 14:03 44.221870 -123.220477 179 1972ft 162kts
04-Jan-18 14:04 44.179325 -123.219823 179 1238ft 139kts
04-Jan-18 14:05 44.141479 -123.219233 179 540ft 134kts
04-Jan-18 14:06 44.120919 -123.218733 154 368ft 7kts
04-Jan-18 14:07 44.119291 -123.216367 133 368ft 7kts
04-Jan-18 14:08 44.119354 -123.214596 56 368ft 4kts
04-Jan-18 14:09 44.119503 -123.214266 57 368ft 0kts

Navigation Log

Ident Type
Flight plan parsing failed, navigation log unavailable